Time;durP1;ratioP1;P1;durP2;ratioP2;P2;SDS_P1;SDS_P2;PMS_P1;PMS_P2;Temp;Humidity;BMP_temperature;BMP_pressure;BME280_temperature;BME280_humidity;BME280_pressure;Samples;Min_cycle;Max_cycle;Signal;HPM_P1;HPM_P2
2023/03/24 00:00:12;;;;;;;;;;;13.40;91.60;;;12.73;76.57;99076.91;5045166;28;19933;-86
2023/03/24 00:02:40;;;;;;;;;;;13.40;91.90;;;12.72;77.19;99082.53;5049131;28;19924;-83
2023/03/24 00:05:09;;;;;;;;;;;13.40;92.50;;;12.69;77.71;99085.72;5051111;28;20373;-81
2023/03/24 00:07:37;;;;;;;;;;;13.40;92.70;;;12.69;77.66;99073.16;5049470;28;19921;-82
2023/03/24 00:10:08;;;;;;;;;;;13.40;92.80;;;12.70;78.13;99077.44;5031263;28;20019;-81
2023/03/24 00:12:37;;;;;;;;;;;13.40;92.80;;;12.70;77.75;99080.13;5041452;28;19939;-84
2023/03/24 00:15:07;;;;;;;;;;;13.40;92.50;;;12.71;77.64;99075.56;5046214;28;19924;-82
2023/03/24 00:17:35;;;;;;;;;;;13.40;92.60;;;12.70;77.86;99073.97;5046987;28;20459;-82
2023/03/24 00:20:11;;;;;;;;;;;13.40;92.80;;;12.66;78.10;99056.81;5049457;28;19927;-82
2023/03/24 00:22:41;;;;;;;;;;;13.40;92.90;;;12.66;78.26;99067.53;5039909;28;19921;-85
2023/03/24 00:25:09;;;;;;;;;;;13.40;93.10;;;12.66;78.00;99059.50;5048375;28;19921;-82
2023/03/24 00:27:38;;;;;;;;;;;13.30;93.10;;;12.68;77.64;99060.84;5039181;28;19921;-81
2023/03/24 00:30:07;;;;;;;;;;;13.40;92.60;;;12.68;77.85;99042.09;5030409;28;19932;-82
2023/03/24 00:32:37;;;;;;;;;;;13.40;92.70;;;12.68;77.71;99050.13;5021450;28;19947;-83
2023/03/24 00:35:06;;;;;;;;;;;13.40;92.70;;;12.69;77.78;99041.06;5046423;28;19929;-82
2023/03/24 00:37:36;;;;;;;;;;;13.40;92.60;;;12.70;77.93;99028.50;5036020;28;19932;-82
2023/03/24 00:40:06;;;;;;;;;;;13.40;92.80;;;12.71;77.64;99041.59;5033687;28;19925;-84
2023/03/24 00:42:34;;;;;;;;;;;13.40;92.60;;;12.72;77.86;99021.81;5045579;28;20407;-84
2023/03/24 00:45:03;;;;;;;;;;;13.40;92.80;;;12.74;77.81;99018.88;5036318;28;20398;-85
2023/03/24 00:47:35;;;;;;;;;;;13.40;93.00;;;12.74;77.79;99022.38;5046805;28;20409;-86
2023/03/24 00:50:04;;;;;;;;;;;13.40;92.80;;;12.74;77.98;99016.22;5022231;28;19972;-83
2023/03/24 00:52:33;;;;;;;;;;;13.40;93.20;;;12.73;78.00;98998.53;5045667;28;20384;-82
2023/03/24 00:55:02;;;;;;;;;;;13.40;93.00;;;12.72;78.04;98997.72;5030520;28;20278;-82
2023/03/24 00:57:33;;;;;;;;;;;13.50;93.10;;;12.73;77.82;98985.94;5030044;28;19924;-81
2023/03/24 01:00:10;;;;;;;;;;;13.50;92.90;;;12.74;77.99;98989.47;5029133;28;19924;-81
2023/03/24 01:02:38;;;;;;;;;;;13.40;92.90;;;12.74;78.02;98984.13;5044835;28;20342;-81
2023/03/24 01:05:07;;;;;;;;;;;13.40;92.80;;;12.76;77.88;98981.97;5043895;28;19928;-82
2023/03/24 01:07:35;;;;;;;;;;;13.50;92.80;;;12.75;78.14;98986.50;5028440;28;19924;-83
2023/03/24 01:10:02;;;;;;;;;;;13.50;93.20;;;12.77;78.13;98980.88;5044260;28;19920;-82
2023/03/24 01:12:31;;;;;;;;;;;13.50;93.00;;;12.77;78.43;98976.34;5042256;28;20450;-81
2023/03/24 01:14:59;;;;;;;;;;;13.50;93.20;;;12.76;78.78;98977.41;5031395;28;19971;-81
2023/03/24 01:17:28;;;;;;;;;;;13.50;93.30;;;12.78;78.57;98988.66;5049290;28;19924;-83
2023/03/24 01:19:55;;;;;;;;;;;13.50;93.20;;;12.78;78.88;98977.94;5031921;28;20540;-83
2023/03/24 01:22:26;;;;;;;;;;;13.50;93.40;;;12.77;78.83;98972.88;5029916;28;20332;-83
2023/03/24 01:24:53;;;;;;;;;;;13.50;93.40;;;12.77;78.82;98973.66;5043695;28;20348;-82
2023/03/24 01:27:20;;;;;;;;;;;13.50;93.40;;;12.78;79.33;98969.91;5041676;28;20344;-82
2023/03/24 01:29:47;;;;;;;;;;;13.50;93.70;;;12.75;79.72;98981.16;5049743;28;19921;-85
2023/03/24 01:32:15;;;;;;;;;;;13.50;94.10;;;12.75;79.80;98962.44;5047720;28;19929;-82
2023/03/24 01:34:43;;;;;;;;;;;13.50;94.00;;;12.74;79.80;98970.72;5027666;28;20439;-82
2023/03/24 01:37:10;;;;;;;;;;;13.50;93.90;;;12.75;79.66;98964.31;5031210;28;19929;-83
2023/03/24 01:39:38;;;;;;;;;;;13.50;94.00;;;12.72;80.21;98965.63;5046809;28;19921;-84
2023/03/24 01:42:05;;;;;;;;;;;13.50;94.20;;;12.73;80.26;98951.19;5023128;28;20389;-83
2023/03/24 01:44:34;;;;;;;;;;;13.50;94.10;;;12.74;79.96;98941.31;5031552;28;19975;-81
2023/03/24 01:47:02;;;;;;;;;;;13.50;94.40;;;12.74;80.46;98936.75;5048631;28;20324;-82
2023/03/24 01:49:33;;;;;;;;;;;13.50;94.30;;;12.75;79.87;98932.22;5049470;28;20451;-81
2023/03/24 01:52:04;;;;;;;;;;;13.50;94.00;;;12.80;79.99;98934.91;5030287;28;19928;-82
2023/03/24 01:54:36;;;;;;;;;;;13.50;94.20;;;12.79;79.98;98926.06;5039372;28;19970;-82
2023/03/24 01:57:10;;;;;;;;;;;13.50;94.20;;;12.80;79.40;98914.28;5025694;28;20274;-83
2023/03/24 01:59:42;;;;;;;;;;;13.50;94.00;;;12.80;79.33;98903.59;5025542;28;20457;-85
2023/03/24 02:02:36;;;;;;;;;;;13.50;93.60;;;12.81;79.16;98910.53;5042712;28;19924;-81
2023/03/24 02:05:06;;;;;;;;;;;13.50;93.70;;;12.83;79.43;98894.22;5033683;28;19920;-83
2023/03/24 02:07:47;;;;;;;;;;;13.50;93.80;;;12.84;79.18;98883.28;5024935;28;19951;-84
2023/03/24 02:10:17;;;;;;;;;;;13.50;93.80;;;12.84;79.20;98877.94;5046520;28;19936;-83
2023/03/24 02:12:45;;;;;;;;;;;13.60;93.80;;;12.82;79.79;98880.03;5025658;28;19925;-83
2023/03/24 02:15:15;;;;;;;;;;;13.50;94.00;;;12.81;79.89;98873.09;5026854;28;20451;-82
2023/03/24 02:17:56;;;;;;;;;;;13.50;94.00;;;12.82;79.84;98868.53;5023003;28;19921;-83
2023/03/24 02:20:58;;;;;;;;;;;13.60;94.00;;;12.82;79.74;98866.66;5029661;28;19935;-82
2023/03/24 02:23:57;;;;;;;;;;;13.60;94.00;;;12.81;80.35;98859.72;5044406;28;19975;-84
2023/03/24 02:26:58;;;;;;;;;;;13.50;94.70;;;12.81;80.33;98848.22;5029274;28;20202;-83
2023/03/24 02:29:59;;;;;;;;;;;13.50;94.40;;;12.83;80.05;98854.09;4991940;28;19929;-83
2023/03/24 02:32:58;;;;;;;;;;;13.60;94.40;;;12.83;80.33;98848.75;5022048;28;20596;-82
2023/03/24 02:35:47;;;;;;;;;;;13.60;94.40;;;12.82;80.92;98842.59;5026584;28;19974;-83
2023/03/24 02:38:39;;;;;;;;;;;13.50;94.90;;;12.82;80.70;98831.88;5028481;28;20019;-82
2023/03/24 02:41:15;;;;;;;;;;;13.60;94.70;;;12.81;81.09;98841.00;5046950;28;19925;-81
2023/03/24 02:43:47;;;;;;;;;;;13.60;94.70;;;12.83;80.75;98828.16;5024320;28;19931;-82
2023/03/24 02:46:22;;;;;;;;;;;13.60;94.40;;;12.86;80.51;98830.28;5047331;28;19931;-83
2023/03/24 02:48:59;;;;;;;;;;;13.60;94.50;;;12.87;80.25;98815.03;5022349;28;19920;-82
2023/03/24 02:51:32;;;;;;;;;;;13.60;94.40;;;12.87;80.40;98815.84;5028713;28;19943;-85
2023/03/24 02:54:07;;;;;;;;;;;13.60;94.40;;;12.88;80.62;98817.47;5029578;28;20015;-82
2023/03/24 02:56:38;;;;;;;;;;;13.60;94.70;;;12.89;80.71;98824.41;5029694;28;20012;-84
2023/03/24 02:59:22;;;;;;;;;;;13.60;94.80;;;12.87;80.83;98804.34;5030870;28;20010;-82
2023/03/24 03:01:56;;;;;;;;;;;13.60;94.70;;;12.88;80.60;98808.59;5026059;28;19925;-84
2023/03/24 03:04:37;;;;;;;;;;;13.60;94.60;;;12.91;80.97;98815.31;5024493;28;19921;-84
2023/03/24 03:07:08;;;;;;;;;;;13.60;94.80;;;12.88;81.01;98816.63;5032351;28;20332;-82
2023/03/24 03:09:38;;;;;;;;;;;13.60;94.80;;;12.86;80.91;98806.22;5035270;28;20439;-81
2023/03/24 03:12:09;;;;;;;;;;;13.60;94.60;;;12.88;80.81;98806.75;5045397;28;20518;-82
2023/03/24 03:14:39;;;;;;;;;;;13.60;94.60;;;12.88;80.96;98809.44;5028167;28;20658;-81
2023/03/24 03:17:09;;;;;;;;;;;13.60;94.60;;;12.89;80.43;98786.97;5046800;28;20346;-81
2023/03/24 03:19:40;;;;;;;;;;;13.70;94.50;;;12.92;81.16;98795.50;5046222;28;19925;-82
2023/03/24 03:22:12;;;;;;;;;;;13.60;95.00;;;12.91;80.95;98808.09;5039939;28;19936;-82
2023/03/24 03:24:42;;;;;;;;;;;13.70;95.00;;;12.91;81.23;98796.59;5031753;28;19924;-82
2023/03/24 03:27:14;;;;;;;;;;;13.70;95.10;;;12.88;81.35;98804.09;5049032;28;19921;-83
2023/03/24 03:29:45;;;;;;;;;;;13.60;95.20;;;12.89;81.53;98811.03;5049507;28;19925;-84
2023/03/24 03:32:17;;;;;;;;;;;13.60;95.30;;;12.92;81.40;98808.88;5049867;28;19932;-82
2023/03/24 03:34:49;;;;;;;;;;;13.70;95.40;;;12.92;81.27;98814.25;5031662;28;19928;-85
2023/03/24 03:37:23;;;;;;;;;;;13.70;95.00;;;12.92;81.28;98801.66;5027503;28;19924;-83
2023/03/24 03:39:54;;;;;;;;;;;13.70;95.20;;;12.92;81.37;98796.31;5048322;28;20714;-85
2023/03/24 03:42:22;;;;;;;;;;;13.70;95.20;;;12.94;81.61;98809.44;5030728;28;19982;-86
2023/03/24 03:44:50;;;;;;;;;;;13.70;95.20;;;12.95;81.49;98800.34;5032349;28;19940;-84
2023/03/24 03:47:17;;;;;;;;;;;13.70;95.30;;;12.93;81.25;98799.78;5026460;28;20385;-83
2023/03/24 03:49:46;;;;;;;;;;;13.70;95.00;;;12.94;81.25;98804.09;5043963;28;20290;-83
2023/03/24 03:52:14;;;;;;;;;;;13.70;95.00;;;12.95;81.49;98798.47;5049753;28;19929;-82
2023/03/24 03:54:42;;;;;;;;;;;13.70;95.20;;;12.95;81.53;98797.66;5028860;28;20355;-82
2023/03/24 03:57:10;;;;;;;;;;;13.70;95.20;;;12.93;81.98;98805.13;5025776;28;19921;-82
2023/03/24 04:00:10;;;;;;;;;;;13.70;95.70;;;12.92;82.20;98804.34;5032140;28;19964;-84
2023/03/24 04:02:49;;;;;;;;;;;13.70;95.80;;;12.92;82.83;98814.25;5044030;28;19921;-85
2023/03/24 04:05:26;;;;;;;;;;;13.70;96.20;;;12.92;83.20;98828.41;5032729;22;1189278;-81
2023/03/24 04:08:08;;;;;;;;;;;13.70;96.30;;;12.92;83.31;98852.50;5062275;28;19924;-81
2023/03/24 04:11:10;;;;;;;;;;;13.70;96.50;;;12.91;83.74;98840.19;5065296;28;19928;-84
2023/03/24 04:13:57;;;;;;;;;;;13.70;96.90;;;12.92;84.16;98841.00;5060310;28;19952;-83
2023/03/24 04:16:41;;;;;;;;;;;13.70;97.40;;;12.92;84.27;98835.66;5054916;28;19929;-82
2023/03/24 04:19:20;;;;;;;;;;;13.70;97.40;;;12.91;84.57;98842.06;5063356;28;20420;-82
2023/03/24 04:22:03;;;;;;;;;;;13.70;97.40;;;12.93;84.66;98861.31;5076171;28;19970;-80
2023/03/24 04:24:48;;;;;;;;;;;13.70;97.50;;;12.95;84.33;98854.66;5086826;28;19962;-83
2023/03/24 04:27:25;;;;;;;;;;;13.70;97.20;;;12.96;84.50;98863.47;5063789;28;19943;-80
2023/03/24 04:29:58;;;;;;;;;;;13.70;97.50;;;12.94;84.64;98870.97;5059459;28;19929;-83
2023/03/24 04:32:35;;;;;;;;;;;13.70;97.60;;;12.92;85.56;98871.22;5063086;28;19925;-80
2023/03/24 04:35:06;;;;;;;;;;;13.70;98.10;;;12.91;85.33;98876.84;5085511;28;19932;-79
2023/03/24 04:37:55;;;;;;;;;;;13.60;97.90;;;12.89;85.66;98869.91;5068332;28;19939;-83
2023/03/24 04:40:26;;;;;;;;;;;13.60;98.20;;;12.86;85.92;98873.09;5083329;28;19932;-82
2023/03/24 04:42:55;;;;;;;;;;;13.60;98.30;;;12.84;85.68;98861.88;5082604;28;19928;-81
2023/03/24 04:45:27;;;;;;;;;;;13.60;98.00;;;12.82;85.98;98873.91;5075247;28;19998;-79
2023/03/24 04:48:00;;;;;;;;;;;13.60;98.20;;;12.81;85.58;98878.44;5064789;28;19986;-81
2023/03/24 04:51:07;;;;;;;;;;;13.60;98.10;;;12.81;85.46;98883.78;5047241;28;19920;-81
2023/03/24 04:53:48;;;;;;;;;;;13.60;97.90;;;12.81;85.27;98893.69;5024556;28;19929;-81
2023/03/24 04:56:29;;;;;;;;;;;13.60;98.00;;;12.79;85.57;98915.38;5062535;28;19925;-84
2023/03/24 04:59:07;;;;;;;;;;;13.50;98.20;;;12.72;85.80;98916.69;5083942;28;20411;-81
2023/03/24 05:01:36;;;;;;;;;;;13.50;98.40;;;12.68;85.97;98919.06;5073717;28;20436;-79
2023/03/24 05:04:30;;;;;;;;;;;13.40;98.30;;;12.68;85.85;98913.72;5054256;28;19921;-79
2023/03/24 05:07:07;;;;;;;;;;;13.40;98.10;;;12.66;85.26;98918.53;5067711;28;20411;-79
2023/03/24 05:09:35;;;;;;;;;;;13.40;98.00;;;12.62;85.29;98936.16;5051674;28;20368;-79
2023/03/24 05:12:02;;;;;;;;;;;13.30;97.90;;;12.62;84.92;98936.16;5075113;28;19924;-81
2023/03/24 05:14:36;;;;;;;;;;;13.30;97.90;;;12.63;84.67;98935.09;5066954;28;19927;-79
2023/03/24 05:17:05;;;;;;;;;;;13.40;97.70;;;12.59;84.54;98940.19;5081607;28;19925;-81
2023/03/24 05:19:35;;;;;;;;;;;13.30;97.50;;;12.54;83.99;98953.53;5059653;28;20665;-80
2023/03/24 05:22:02;;;;;;;;;;;13.30;97.40;;;12.52;84.29;98965.56;5062014;28;19936;-80
2023/03/24 05:24:30;;;;;;;;;;;13.30;97.50;;;12.52;84.09;98982.41;5085482;28;20372;-79
2023/03/24 05:26:57;;;;;;;;;;;13.20;97.20;;;12.53;84.26;98983.19;5053862;28;20655;-81
2023/03/24 05:29:24;;;;;;;;;;;13.20;97.20;;;12.53;83.49;98992.03;5075210;28;19925;-80
2023/03/24 05:31:51;;;;;;;;;;;13.20;96.70;;;12.49;82.98;98987.44;5093847;28;19982;-81
2023/03/24 05:34:21;;;;;;;;;;;13.30;96.50;;;12.50;82.69;98995.22;5083598;28;19935;-81
2023/03/24 05:36:58;;;;;;;;;;;13.20;96.00;;;12.52;81.63;99003.00;5072253;28;20570;-77
2023/03/24 05:39:25;;;;;;;;;;;13.20;95.40;;;12.49;81.03;99016.88;5087940;28;19962;-79
2023/03/24 05:42:02;;;;;;;;;;;13.20;95.30;;;12.48;80.31;99026.75;5076931;28;19974;-80
2023/03/24 05:44:29;;;;;;;;;;;13.10;94.60;;;12.40;78.88;99034.50;5066905;28;19967;-82
2023/03/24 05:47:04;;;;;;;;;;;13.10;93.90;;;12.36;78.89;99042.22;5079081;28;19924;-79
2023/03/24 05:49:31;;;;;;;;;;;13.00;94.10;;;12.34;78.90;99047.78;5082048;28;19950;-79
2023/03/24 05:52:01;;;;;;;;;;;13.00;93.90;;;12.24;76.89;99060.28;5079340;28;19925;-80
2023/03/24 05:54:28;;;;;;;;;;;12.90;92.50;;;12.14;76.06;99070.91;5078461;28;20378;-80
2023/03/24 05:57:07;;;;;;;;;;;12.80;92.00;;;12.12;77.22;99068.50;5079083;28;19928;-76
2023/03/24 05:59:40;;;;;;;;;;;12.80;93.00;;;12.15;77.11;99073.34;5076179;28;20328;-76
2023/03/24 06:02:31;;;;;;;;;;;12.80;92.80;;;12.12;76.20;99081.88;5058293;28;19929;-77
2023/03/24 06:05:07;;;;;;;;;;;12.80;91.90;;;12.04;76.01;99082.31;5061670;28;19932;-78
2023/03/24 06:07:37;;;;;;;;;;;12.70;92.30;;;11.99;75.49;99085.75;5074638;28;19935;-78
2023/03/24 06:10:06;;;;;;;;;;;12.70;91.60;;;11.97;75.36;99095.09;5077205;28;19928;-79
2023/03/24 06:12:41;;;;;;;;;;;12.70;91.80;;;12.02;76.47;99095.94;5084254;28;20471;-78
2023/03/24 06:15:10;;;;;;;;;;;12.70;92.60;;;12.03;76.40;99105.56;5079794;28;19959;-79
2023/03/24 06:17:37;;;;;;;;;;;12.70;92.40;;;12.06;75.96;99104.28;5076061;28;19930;-78
2023/03/24 06:20:17;;;;;;;;;;;12.70;92.10;;;12.06;75.89;99105.06;5082781;28;20339;-77
2023/03/24 06:22:57;;;;;;;;;;;12.70;92.20;;;12.08;75.80;99115.50;5068792;28;20337;-79
2023/03/24 06:25:27;;;;;;;;;;;12.90;92.10;;;12.08;74.77;99115.50;5082237;28;19920;-79
2023/03/24 06:28:13;;;;;;;;;;;12.70;91.00;;;12.03;72.85;99107.44;5068051;28;19977;-80
2023/03/24 06:30:45;;;;;;;;;;;12.70;89.40;;;11.94;72.01;99107.09;5056892;28;19997;-79
2023/03/24 06:33:16;;;;;;;;;;;12.60;88.90;;;11.85;72.73;99120.09;5063952;28;19920;-78
2023/03/24 06:35:44;;;;;;;;;;;12.50;89.80;;;11.84;72.87;99120.34;5066175;28;19936;-80
2023/03/24 06:38:16;;;;;;;;;;;12.50;90.00;;;11.84;73.10;99125.69;5080528;28;20006;-80
2023/03/24 06:40:45;;;;;;;;;;;12.50;90.20;;;11.85;73.66;99132.66;5066346;28;19928;-80
2023/03/24 06:43:12;;;;;;;;;;;12.50;90.60;;;11.85;73.75;99135.31;5082686;28;19927;-79
2023/03/24 06:45:41;;;;;;;;;;;12.50;90.60;;;11.89;73.68;99139.09;5059391;28;20288;-81
2023/03/24 06:48:13;;;;;;;;;;;12.50;90.80;;;11.92;74.07;99137.81;5064381;28;19993;-80
2023/03/24 06:50:40;;;;;;;;;;;12.50;91.20;;;11.93;73.77;99150.09;5084572;28;19930;-80
2023/03/24 06:53:09;;;;;;;;;;;12.50;90.70;;;11.95;73.54;99147.97;5075370;28;19931;-80
2023/03/24 06:55:38;;;;;;;;;;;12.50;90.80;;;11.96;73.96;99146.94;5060292;28;19927;-80
2023/03/24 06:58:05;;;;;;;;;;;12.60;91.10;;;11.95;73.79;99153.31;5085588;28;19921;-81
2023/03/24 07:00:40;;;;;;;;;;;12.60;90.60;;;11.96;72.93;99152.28;5086415;28;20414;-80
2023/03/24 07:03:23;;;;;;;;;;;12.60;90.10;;;11.98;71.98;99152.81;5078789;28;19924;-79
2023/03/24 07:06:10;;;;;;;;;;;12.60;89.30;;;12.01;71.22;99155.00;5060382;28;20274;-79
2023/03/24 07:08:37;;;;;;;;;;;12.60;88.30;;;12.00;71.18;99151.50;5074031;28;19920;-79
2023/03/24 07:11:07;;;;;;;;;;;12.60;88.40;;;12.03;70.85;99153.66;5081688;28;19929;-80
2023/03/24 07:13:34;;;;;;;;;;;12.70;88.50;;;12.07;70.85;99152.13;5060631;28;19936;-81
2023/03/24 07:16:04;;;;;;;;;;;12.80;88.30;;;12.11;70.91;99144.41;5076741;28;19928;-80
2023/03/24 07:18:32;;;;;;;;;;;12.80;88.20;;;12.18;70.52;99149.53;5070632;28;19921;-79
2023/03/24 07:21:03;;;;;;;;;;;12.80;87.80;;;12.16;69.27;99157.00;5084777;28;19920;-81
2023/03/24 07:23:31;;;;;;;;;;;12.90;87.10;;;12.16;68.87;99157.81;5060665;28;19970;-79
2023/03/24 07:26:08;;;;;;;;;;;12.80;86.50;;;12.21;70.00;99157.06;5065134;28;19939;-80
2023/03/24 07:28:54;;;;;;;;;;;12.90;87.90;;;12.22;68.85;99172.03;5051201;28;19971;-80
2023/03/24 07:31:38;;;;;;;;;;;12.90;86.50;;;12.28;68.61;99165.66;5055253;28;19943;-81
2023/03/24 07:34:08;;;;;;;;;;;13.00;86.30;;;12.36;69.34;99165.19;5076312;28;19920;-81
2023/03/24 07:36:37;;;;;;;;;;;13.00;86.90;;;12.40;68.77;99165.50;5067268;28;20297;-80
2023/03/24 07:39:08;;;;;;;;;;;13.10;86.50;;;12.43;68.05;99187.16;5072814;28;19928;-79
2023/03/24 07:41:37;;;;;;;;;;;13.10;85.90;;;12.48;68.68;99179.19;5076518;28;19921;-79
2023/03/24 07:44:12;;;;;;;;;;;13.10;86.00;;;12.53;68.29;99165.06;5062437;28;20017;-82
2023/03/24 07:46:49;;;;;;;;;;;13.20;85.90;;;12.55;67.37;99165.63;5058911;28;19931;-80
2023/03/24 07:49:16;;;;;;;;;;;13.30;84.90;;;12.58;67.03;99160.53;5074750;28;19956;-78
2023/03/24 07:51:46;;;;;;;;;;;13.30;84.70;;;12.66;67.69;99164.63;5070447;28;19931;-79
2023/03/24 07:54:36;;;;;;;;;;;13.40;85.30;;;12.75;68.67;99172.97;5082370;28;19975;-78
2023/03/24 07:57:04;;;;;;;;;;;13.50;86.40;;;12.81;67.14;99180.78;5061516;28;19920;-79
2023/03/24 07:59:32;;;;;;;;;;;13.50;84.50;;;12.80;65.92;99179.16;5062520;28;19920;-78
2023/03/24 08:02:16;;;;;;;;;;;13.50;83.50;;;12.86;66.17;99180.81;5064853;28;19920;-79
2023/03/24 08:04:56;;;;;;;;;;;13.60;83.70;;;12.93;65.55;99187.78;5082230;28;20287;-81
2023/03/24 08:07:52;;;;;;;;;;;13.70;83.10;;;12.91;65.19;99190.72;5053839;28;19970;-79
2023/03/24 08:10:20;;;;;;;;;;;13.60;82.90;;;12.92;65.48;99188.88;5063368;28;19929;-81
2023/03/24 08:12:49;;;;;;;;;;;13.70;83.30;;;12.92;65.13;99196.88;5064484;28;19920;-81
2023/03/24 08:15:16;;;;;;;;;;;13.70;82.90;;;12.96;65.34;99198.00;5065765;28;19924;-79
2023/03/24 08:17:43;;;;;;;;;;;13.70;83.30;;;13.00;64.89;99201.78;5061288;28;19928;-81
2023/03/24 08:20:13;;;;;;;;;;;13.70;82.50;;;13.02;65.55;99205.78;5058911;28;20384;-81
2023/03/24 08:22:41;;;;;;;;;;;13.70;83.30;;;13.05;65.09;99207.16;5059739;28;20455;-81
2023/03/24 08:25:09;;;;;;;;;;;13.80;82.80;;;13.04;65.53;99208.22;5062585;28;20016;-82
2023/03/24 08:27:37;;;;;;;;;;;13.80;83.60;;;13.02;64.98;99197.75;5059913;28;19924;-81
2023/03/24 08:30:09;;;;;;;;;;;13.80;82.50;;;13.09;65.13;99210.94;5059790;28;19927;-80
2023/03/24 08:32:37;;;;;;;;;;;13.80;82.70;;;13.10;65.22;99207.19;5055950;28;19925;-82
2023/03/24 08:35:04;;;;;;;;;;;13.80;82.80;;;13.15;66.34;99201.84;5052060;28;19924;-80
2023/03/24 08:37:31;;;;;;;;;;;13.90;83.90;;;13.23;67.51;99195.25;5058490;28;20304;-80
2023/03/24 08:40:04;;;;;;;;;;;14.00;84.90;;;13.27;66.13;99197.13;5070075;28;20391;-80
2023/03/24 08:42:31;;;;;;;;;;;14.00;83.60;;;13.23;64.09;99200.59;5062204;28;19924;-80
2023/03/24 08:44:58;;;;;;;;;;;14.00;81.60;;;13.17;64.10;99199.72;5059547;28;19921;-80
2023/03/24 08:47:28;;;;;;;;;;;13.90;81.60;;;13.18;64.76;99198.66;5066455;28;20037;-80
2023/03/24 08:49:57;;;;;;;;;;;13.90;82.20;;;13.17;63.83;99202.38;5067097;28;20026;-81
2023/03/24 08:52:25;;;;;;;;;;;13.90;81.50;;;13.18;65.02;99197.88;5058671;28;19921;-81
2023/03/24 08:54:52;;;;;;;;;;;13.90;82.50;;;13.21;65.03;99198.13;5065686;28;19993;-81
2023/03/24 08:57:20;;;;;;;;;;;13.90;82.60;;;13.24;64.12;99199.53;5062975;28;20015;-88
2023/03/24 08:59:47;;;;;;;;;;;14.00;81.40;;;13.27;64.30;99202.47;5060775;28;19920;-81
2023/03/24 09:02:14;;;;;;;;;;;14.00;82.00;;;13.28;63.74;99208.66;5060103;28;19954;-81
2023/03/24 09:04:44;;;;;;;;;;;14.00;81.10;;;13.30;61.76;99207.31;5069092;28;19925;-82
2023/03/24 09:07:11;;;;;;;;;;;14.00;79.10;;;13.28;63.04;99206.78;5059246;28;20002;-80
2023/03/24 09:09:39;;;;;;;;;;;14.10;80.60;;;13.34;62.81;99204.94;5058841;28;19920;-82
2023/03/24 09:12:06;;;;;;;;;;;14.10;80.20;;;13.38;62.06;99209.50;5069926;28;19993;-82
2023/03/24 09:14:33;;;;;;;;;;;14.10;79.50;;;13.40;63.09;99210.06;5082161;28;19925;-81
2023/03/24 09:17:00;;;;;;;;;;;14.20;80.40;;;13.44;62.64;99206.88;5062757;28;19925;-81
2023/03/24 09:19:27;;;;;;;;;;;14.20;80.00;;;13.46;62.13;99212.75;5067694;28;19927;-81
2023/03/24 09:21:56;;;;;;;;;;;14.20;79.40;;;13.50;62.66;99220.00;5064232;28;19921;-83
2023/03/24 09:24:23;;;;;;;;;;;14.30;79.80;;;13.61;62.67;99215.50;5070151;28;19921;-83
2023/03/24 09:26:50;;;;;;;;;;;14.40;79.90;;;13.65;62.00;99230.78;5072996;28;19935;-82
2023/03/24 09:29:17;;;;;;;;;;;14.40;79.20;;;13.68;61.02;99236.69;5056248;28;19924;-81
2023/03/24 09:31:44;;;;;;;;;;;14.40;78.10;;;13.62;60.41;99227.84;5059759;28;19921;-82
2023/03/24 09:34:11;;;;;;;;;;;14.40;77.50;;;13.55;59.90;99228.06;5059241;28;19931;-83
2023/03/24 09:36:38;;;;;;;;;;;14.40;77.10;;;13.57;61.14;99227.81;5056009;28;19920;-84
2023/03/24 09:39:07;;;;;;;;;;;14.40;77.90;;;13.59;61.03;99231.84;5066429;28;20034;-80
2023/03/24 09:41:34;;;;;;;;;;;14.40;77.80;;;13.64;61.27;99223.81;5069335;28;19931;-84
2023/03/24 09:44:06;;;;;;;;;;;14.40;78.40;;;13.63;60.81;99224.09;5069582;28;20303;-82
2023/03/24 09:46:35;;;;;;;;;;;14.40;77.80;;;13.72;61.33;99232.44;5059571;28;20077;-81
2023/03/24 09:49:03;;;;;;;;;;;14.50;78.40;;;13.72;59.37;99230.56;5070221;28;19924;-83
2023/03/24 09:51:32;;;;;;;;;;;14.50;76.70;;;13.68;60.09;99240.19;5062367;28;19928;-83
2023/03/24 09:54:06;;;;;;;;;;;14.50;77.20;;;13.68;59.90;99232.16;5070432;28;19960;-81
2023/03/24 09:56:38;;;;;;;;;;;14.50;76.80;;;13.69;60.35;99230.28;5053833;28;19928;-81
2023/03/24 09:59:07;;;;;;;;;;;14.50;77.20;;;13.68;60.22;99240.19;5067761;28;20015;-82
2023/03/24 10:01:35;;;;;;;;;;;14.50;77.10;;;13.67;58.34;99238.56;5067410;28;19926;-81
2023/03/24 10:04:02;;;;;;;;;;;14.50;75.20;;;13.67;59.61;99249.28;5061044;28;19924;-82
2023/03/24 10:06:33;;;;;;;;;;;14.50;76.80;;;13.69;60.07;99252.50;5074612;22;19928;-82
2023/03/24 10:09:14;;;;;;;;;;;14.50;76.90;;;13.68;59.05;99260.81;5049986;28;19924;-86
2023/03/24 10:11:48;;;;;;;;;;;14.50;75.80;;;13.64;59.31;99249.81;5029917;28;19925;-80
2023/03/24 10:14:25;;;;;;;;;;;14.40;76.10;;;13.60;58.25;99264.78;5029663;28;19932;-80
2023/03/24 10:17:00;;;;;;;;;;;14.40;75.00;;;13.57;59.74;99273.38;5046105;28;19925;-80
2023/03/24 10:19:37;;;;;;;;;;;14.40;76.60;;;13.55;59.38;99292.34;5049100;28;20398;-81
2023/03/24 10:22:09;;;;;;;;;;;14.40;76.20;;;13.51;59.34;99280.53;5047275;28;19920;-80
2023/03/24 10:24:43;;;;;;;;;;;14.30;76.20;;;13.49;57.81;99277.31;5029410;28;20260;-80
2023/03/24 10:27:17;;;;;;;;;;;14.30;74.70;;;13.52;59.29;99286.72;5038134;28;19925;-79
2023/03/24 10:29:45;;;;;;;;;;;14.30;76.20;;;13.54;59.68;99288.06;5042881;28;20012;-79
2023/03/24 10:32:18;;;;;;;;;;;14.30;76.70;;;13.56;59.38;99293.16;5048664;28;19971;-81
2023/03/24 10:34:48;;;;;;;;;;;14.30;76.00;;;13.68;59.79;99295.66;5052548;28;20069;-81
2023/03/24 10:37:16;;;;;;;;;;;14.40;76.70;;;13.74;58.12;99284.69;5050273;28;20051;-79
2023/03/24 10:39:43;;;;;;;;;;;14.50;74.70;;;13.80;57.88;99278.28;5052170;28;19967;-78
2023/03/24 10:42:15;;;;;;;;;;;14.50;74.50;;;13.86;57.40;99284.47;5045400;28;19924;-78
2023/03/24 10:44:42;;;;;;;;;;;14.60;73.90;;;13.91;57.41;99293.34;5051151;28;19967;-80
2023/03/24 10:47:12;;;;;;;;;;;14.70;74.10;;;13.97;56.77;99290.69;5046912;28;20399;-78
2023/03/24 10:49:52;;;;;;;;;;;14.70;73.80;;;14.01;56.19;99284.53;5064541;28;19920;-79
2023/03/24 10:52:19;;;;;;;;;;;14.80;72.70;;;14.08;55.84;99292.31;5066235;28;19950;-78
2023/03/24 10:54:55;;;;;;;;;;;14.80;72.30;;;14.13;56.26;99292.34;5049132;28;20012;-78
2023/03/24 10:57:24;;;;;;;;;;;14.90;73.10;;;14.12;54.65;99286.19;5051412;28;19929;-79
2023/03/24 10:59:54;;;;;;;;;;;14.90;70.90;;;14.18;54.86;99298.53;5055868;28;20019;-79
2023/03/24 11:02:24;;;;;;;;;;;14.90;71.40;;;14.18;55.01;99300.41;5050839;28;19929;-78
2023/03/24 11:04:55;;;;;;;;;;;15.00;71.40;;;14.21;56.28;99297.22;5052314;28;20021;-78
2023/03/24 11:07:23;;;;;;;;;;;15.00;72.70;;;14.24;55.26;99304.69;5051963;28;19938;-77
2023/03/24 11:09:59;;;;;;;;;;;15.00;71.40;;;14.26;55.07;99302.59;5057570;28;20035;-78
2023/03/24 11:12:28;;;;;;;;;;;15.10;71.40;;;14.28;53.65;99308.47;5052752;28;19936;-78
2023/03/24 11:15:03;;;;;;;;;;;15.10;69.50;;;14.28;55.78;99297.75;5049691;28;19924;-78
2023/03/24 11:17:30;;;;;;;;;;;15.10;71.90;;;14.37;55.57;99290.81;5044850;28;19928;-80
2023/03/24 11:19:57;;;;;;;;;;;15.20;71.70;;;14.41;54.33;99296.44;5053366;28;21195;-80
2023/03/24 11:22:25;;;;;;;;;;;15.20;70.60;;;14.37;52.90;99296.16;5049434;28;19925;-79
2023/03/24 11:24:56;;;;;;;;;;;15.20;68.90;;;14.32;53.20;99298.84;5046623;28;19964;-77
2023/03/24 11:27:23;;;;;;;;;;;15.10;69.10;;;14.26;52.84;99293.72;5050738;28;20011;-80
2023/03/24 11:29:53;;;;;;;;;;;15.10;68.50;;;14.23;53.21;99297.72;5034706;28;20328;-79
2023/03/24 11:32:25;;;;;;;;;;;15.00;68.90;;;14.17;53.13;99302.28;5071971;28;19924;-78
2023/03/24 11:35:02;;;;;;;;;;;15.00;68.80;;;14.12;53.72;99294.22;5065871;28;20010;-79
2023/03/24 11:37:32;;;;;;;;;;;15.00;69.30;;;14.17;53.68;99304.16;5048870;28;19924;-78
2023/03/24 11:40:21;;;;;;;;;;;15.00;69.70;;;14.25;54.90;99300.97;5052363;28;19931;-79